Time;durP1;ratioP1;P1;durP2;ratioP2;P2;SDS_P1;SDS_P2;PMS_P1;PMS_P2;Temp;Humidity;BMP_temperature;BMP_pressure;BME280_temperature;BME280_humidity;BME280_pressure;Samples;Min_cycle;Max_cycle;Signal;HPM_P1;HPM_P2
2023/08/27 00:02:10;;;;;;;8.27;3.27;;;19.00;75.40;;;;;;5024633;28;20554;-79
2023/08/27 00:04:42;;;;;;;9.97;3.43;;;19.00;75.50;;;;;;5021988;28;20543;-81
2023/08/27 00:07:10;;;;;;;7.73;3.33;;;19.00;75.50;;;;;;5025969;28;20475;-79
2023/08/27 00:09:38;;;;;;;9.43;3.50;;;19.00;75.60;;;;;;5022292;28;20457;-81
2023/08/27 00:12:06;;;;;;;6.53;3.33;;;19.00;75.60;;;;;;5021432;28;20447;-78
2023/08/27 00:14:34;;;;;;;6.57;2.80;;;19.00;75.60;;;;;;5019478;28;20457;-79
2023/08/27 00:17:03;;;;;;;7.50;3.60;;;18.90;75.60;;;;;;5024599;28;20859;-79
2023/08/27 00:19:31;;;;;;;5.90;3.83;;;19.00;75.80;;;;;;5027021;28;20536;-79
2023/08/27 00:22:00;;;;;;;6.00;3.60;;;19.00;75.80;;;;;;5030544;28;20447;-80
2023/08/27 00:24:28;;;;;;;6.90;3.50;;;19.00;75.80;;;;;;5024515;28;20453;-78
2023/08/27 00:26:57;;;;;;;9.20;3.80;;;19.00;75.90;;;;;;5029938;28;20455;-80
2023/08/27 00:29:25;;;;;;;8.80;3.93;;;18.90;75.80;;;;;;5021911;28;20885;-79
2023/08/27 00:31:53;;;;;;;6.40;3.60;;;18.90;75.90;;;;;;5006101;28;20539;-78
2023/08/27 00:34:22;;;;;;;6.97;4.00;;;18.90;76.00;;;;;;5018395;28;20466;-78
2023/08/27 00:36:49;;;;;;;7.27;3.60;;;18.90;76.00;;;;;;5003749;28;20455;-79
2023/08/27 00:39:19;;;;;;;6.87;2.87;;;18.90;76.10;;;;;;5007085;28;20488;-80
2023/08/27 00:41:47;;;;;;;9.77;3.33;;;18.90;76.10;;;;;;5002016;28;20475;-78
2023/08/27 00:44:15;;;;;;;6.20;3.60;;;18.90;76.10;;;;;;5008320;28;20467;-78
2023/08/27 00:46:43;;;;;;;6.50;3.43;;;18.90;76.20;;;;;;5007337;28;20985;-79
2023/08/27 00:49:12;;;;;;;5.57;3.00;;;18.90;76.20;;;;;;5005104;28;20453;-78
2023/08/27 00:51:45;;;;;;;6.30;3.00;;;18.90;76.20;;;;;;5007692;28;20516;-80
2023/08/27 00:54:14;;;;;;;7.60;3.80;;;18.80;76.30;;;;;;5001832;28;20555;-79
2023/08/27 00:56:46;;;;;;;10.03;3.73;;;18.80;76.30;;;;;;5001550;28;20904;-79
2023/08/27 00:59:14;;;;;;;7.40;3.77;;;18.80;76.40;;;;;;5007899;28;20489;-79
2023/08/27 01:01:43;;;;;;;10.40;4.10;;;18.80;76.40;;;;;;5015598;28;20487;-79
2023/08/27 01:04:10;;;;;;;7.00;3.57;;;18.80;76.50;;;;;;5026810;28;21171;-80
2023/08/27 01:06:39;;;;;;;6.60;3.60;;;18.80;76.50;;;;;;5026565;28;20462;-79
2023/08/27 01:09:12;;;;;;;8.20;4.60;;;18.80;76.50;;;;;;5022709;28;20459;-79
2023/08/27 01:11:51;;;;;;;7.30;4.20;;;18.80;76.50;;;;;;5015684;28;20451;-79
2023/08/27 01:14:23;;;;;;;11.83;3.00;;;18.80;76.50;;;;;;5024492;28;20473;-78
2023/08/27 01:16:52;;;;;;;7.53;3.77;;;18.80;76.60;;;;;;5022801;28;20456;-79
2023/08/27 01:19:23;;;;;;;6.20;3.37;;;18.90;76.70;;;;;;5028986;28;20993;-79
2023/08/27 01:21:53;;;;;;;8.00;3.47;;;18.90;76.70;;;;;;5043073;28;20546;-78
2023/08/27 01:24:21;;;;;;;5.40;3.27;;;18.80;76.70;;;;;;5023219;28;20455;-79
2023/08/27 01:26:54;;;;;;;7.03;3.10;;;18.80;76.70;;;;;;5024292;28;20456;-81
2023/08/27 01:29:27;;;;;;;16.87;3.70;;;18.90;76.80;;;;;;5024276;28;20455;-79
2023/08/27 01:32:05;;;;;;;6.90;3.70;;;18.80;76.80;;;;;;5019859;28;20507;-79
2023/08/27 01:34:36;;;;;;;5.90;3.70;;;18.80;76.90;;;;;;5004530;28;20452;-79
2023/08/27 01:37:06;;;;;;;6.13;3.93;;;18.80;76.90;;;;;;5004478;28;21384;-79
2023/08/27 01:39:34;;;;;;;7.83;3.50;;;18.80;77.00;;;;;;5006813;28;20468;-79
2023/08/27 01:42:02;;;;;;;7.77;4.00;;;18.80;77.10;;;;;;5008356;28;20551;-80
2023/08/27 01:44:30;;;;;;;8.93;4.00;;;18.80;77.00;;;;;;5005999;28;20479;-80
2023/08/27 01:46:58;;;;;;;8.50;3.83;;;18.80;77.00;;;;;;5005984;28;20469;-79
2023/08/27 01:49:27;;;;;;;12.20;3.60;;;18.70;77.00;;;;;;5004956;28;20452;-79
2023/08/27 01:51:55;;;;;;;8.10;4.00;;;18.70;77.20;;;;;;5005860;28;20544;-76
2023/08/27 01:54:25;;;;;;;7.23;3.93;;;18.70;77.30;;;;;;5018765;28;20794;-79
2023/08/27 01:56:53;;;;;;;9.50;3.60;;;18.80;77.30;;;;;;5021950;28;20463;-79
2023/08/27 01:59:21;;;;;;;9.13;3.90;;;18.80;77.30;;;;;;5003950;28;20481;-78
2023/08/27 02:01:49;;;;;;;6.63;4.03;;;18.80;77.40;;;;;;5007869;28;20481;-79
2023/08/27 02:04:17;;;;;;;10.00;3.77;;;18.80;77.40;;;;;;5005212;28;20472;-80
2023/08/27 02:06:45;;;;;;;8.90;4.30;;;18.80;77.30;;;;;;5005228;28;20862;-80
2023/08/27 02:09:15;;;;;;;11.03;4.37;;;18.80;77.40;;;;;;5006697;28;20457;-78
2023/08/27 02:11:44;;;;;;;8.63;5.00;;;18.70;77.50;;;;;;5004370;28;21054;-79
2023/08/27 02:14:13;;;;;;;9.10;3.80;;;18.80;77.50;;;;;;5017777;28;20539;-80
2023/08/27 02:16:41;;;;;;;6.40;3.80;;;18.80;77.60;;;;;;5002193;28;20844;-80
2023/08/27 02:19:09;;;;;;;8.73;4.40;;;18.80;77.60;;;;;;5009188;28;20483;-80
2023/08/27 02:21:38;;;;;;;9.20;4.63;;;18.80;77.60;;;;;;5004421;28;20457;-80
2023/08/27 02:24:07;;;;;;;9.13;3.23;;;18.90;77.70;;;;;;5002948;28;20456;-80
2023/08/27 02:26:35;;;;;;;9.30;4.17;;;18.90;77.70;;;;;;5002001;28;20452;-78
2023/08/27 02:29:04;;;;;;;8.40;4.23;;;18.90;77.70;;;;;;5001388;28;20470;-78
2023/08/27 02:31:32;;;;;;;7.53;4.20;;;18.90;77.80;;;;;;5018208;28;20485;-78
2023/08/27 02:34:01;;;;;;;8.80;4.37;;;18.90;77.80;;;;;;5021378;28;20452;-78
2023/08/27 02:36:29;;;;;;;8.70;4.53;;;18.90;77.70;;;;;;5027529;28;20458;-79
2023/08/27 02:38:58;;;;;;;12.43;4.10;;;18.80;77.70;;;;;;5024144;28;20480;-79
2023/08/27 02:41:26;;;;;;;7.63;3.80;;;18.80;77.90;;;;;;5028356;28;20523;-79
2023/08/27 02:43:54;;;;;;;9.00;4.30;;;18.80;78.00;;;;;;5024413;28;20558;-78
2023/08/27 02:46:24;;;;;;;8.10;3.93;;;18.80;78.00;;;;;;5024915;28;20447;-78
2023/08/27 02:48:54;;;;;;;12.37;4.40;;;18.90;78.10;;;;;;5027933;28;20454;-79
2023/08/27 02:51:22;;;;;;;10.23;4.10;;;18.80;78.10;;;;;;5024711;28;20863;-79
2023/08/27 02:53:51;;;;;;;8.97;4.60;;;18.90;78.10;;;;;;5019678;28;20936;-80
2023/08/27 02:56:22;;;;;;;8.33;3.97;;;18.90;78.10;;;;;;5022618;28;20499;-79
2023/08/27 02:58:51;;;;;;;8.23;3.77;;;18.90;78.10;;;;;;5026812;28;20456;-80
2023/08/27 03:01:20;;;;;;;8.10;3.97;;;18.90;78.10;;;;;;5024252;28;20508;-79
2023/08/27 03:03:51;;;;;;;8.50;3.90;;;18.90;78.10;;;;;;5029524;28;20455;-78
2023/08/27 03:06:19;;;;;;;9.50;4.53;;;18.90;78.10;;;;;;5025286;28;20533;-80
2023/08/27 03:08:47;;;;;;;6.70;3.80;;;18.90;78.10;;;;;;5027451;28;20997;-79
2023/08/27 03:11:15;;;;;;;7.73;3.63;;;18.90;78.10;;;;;;5025047;28;20451;-79
2023/08/27 03:13:43;;;;;;;6.93;3.70;;;18.90;78.10;;;;;;5022624;28;20495;-79
2023/08/27 03:16:11;;;;;;;8.23;4.10;;;18.90;78.20;;;;;;5028086;28;20455;-79
2023/08/27 03:18:39;;;;;;;6.80;3.80;;;18.90;78.20;;;;;;5023681;28;20456;-80
2023/08/27 03:21:09;;;;;;;7.03;4.50;;;18.90;78.20;;;;;;5023576;28;20515;-79
2023/08/27 03:23:37;;;;;;;10.53;4.30;;;18.80;78.30;;;;;;5019171;28;20474;-79
2023/08/27 03:26:05;;;;;;;6.67;3.70;;;18.80;78.20;;;;;;5044802;28;20463;-80
2023/08/27 03:28:33;;;;;;;8.03;4.00;;;18.80;78.30;;;;;;5025055;28;20556;-80
2023/08/27 03:31:02;;;;;;;7.70;3.80;;;18.80;78.30;;;;;;5020384;28;20494;-78
2023/08/27 03:33:31;;;;;;;6.47;3.63;;;18.80;78.30;;;;;;5018195;28;20931;-80
2023/08/27 03:36:01;;;;;;;9.50;4.13;;;18.80;78.30;;;;;;5024334;28;21265;-80
2023/08/27 03:38:32;;;;;;;10.73;4.07;;;18.80;78.30;;;;;;5025793;28;20502;-81
2023/08/27 03:41:00;;;;;;;9.57;4.27;;;18.80;78.40;;;;;;5036681;28;20480;-80
2023/08/27 03:43:28;;;;;;;8.53;4.70;;;18.80;78.40;;;;;;5027724;28;20448;-79
2023/08/27 03:45:56;;;;;;;7.27;4.37;;;18.80;78.40;;;;;;5021619;28;20460;-80
2023/08/27 03:48:24;;;;;;;10.73;4.33;;;18.80;78.40;;;;;;5020458;28;20464;-78
2023/08/27 03:50:52;;;;;;;8.50;4.40;;;18.80;78.40;;;;;;5022804;28;20930;-79
2023/08/27 03:53:20;;;;;;;9.43;4.00;;;18.80;78.30;;;;;;5027274;28;20541;-79
2023/08/27 03:55:50;;;;;;;8.90;4.47;;;18.80;78.30;;;;;;5024852;28;20487;-79
2023/08/27 03:58:18;;;;;;;9.03;4.10;;;18.70;78.30;;;;;;5022491;28;20461;-79
2023/08/27 04:00:47;;;;;;;8.80;4.40;;;18.70;78.40;;;;;;5032604;28;20480;-80
2023/08/27 04:03:15;;;;;;;6.63;4.33;;;18.70;78.40;;;;;;5027893;28;20476;-79
2023/08/27 04:05:44;;;;;;;11.63;4.17;;;18.70;78.50;;;;;;5024324;28;20460;-79
2023/08/27 04:08:12;;;;;;;7.80;4.40;;;18.70;78.50;;;;;;5024368;28;20958;-79
2023/08/27 04:10:40;;;;;;;8.43;4.37;;;18.70;78.50;;;;;;5021869;28;20506;-78
2023/08/27 04:13:09;;;;;;;13.10;4.67;;;18.70;78.50;;;;;;5025072;28;20921;-80
2023/08/27 04:15:37;;;;;;;7.60;4.50;;;18.70;78.60;;;;;;5024691;28;20823;-79
2023/08/27 04:18:05;;;;;;;8.07;4.47;;;18.70;78.60;;;;;;5031984;28;21296;-80
2023/08/27 04:20:33;;;;;;;9.03;4.87;;;18.70;78.70;;;;;;5028155;28;20471;-79
2023/08/27 04:23:03;;;;;;;13.63;4.53;;;18.70;78.70;;;;;;5030051;28;20542;-78
2023/08/27 04:25:31;;;;;;;13.00;4.83;;;18.70;78.70;;;;;;5033739;28;20544;-80
2023/08/27 04:27:59;;;;;;;15.43;5.33;;;18.60;78.60;;;;;;5017799;28;20552;-79
2023/08/27 04:30:28;;;;;;;9.07;4.90;;;18.60;78.60;;;;;;5016941;28;20500;-79
2023/08/27 04:32:56;;;;;;;8.10;4.77;;;18.50;78.80;;;;;;5032097;28;20463;-78
2023/08/27 04:35:24;;;;;;;9.33;4.97;;;18.50;79.00;;;;;;5030363;28;20472;-81
2023/08/27 04:37:52;;;;;;;8.93;5.43;;;18.50;79.10;;;;;;5023393;28;20478;-79
2023/08/27 04:40:20;;;;;;;8.40;4.20;;;18.50;79.20;;;;;;5025151;28;20485;-79
2023/08/27 04:42:49;;;;;;;8.13;5.17;;;18.50;79.20;;;;;;5019088;28;20471;-79
2023/08/27 04:45:17;;;;;;;7.20;4.33;;;18.60;79.20;;;;;;5028114;28;20550;-80
2023/08/27 04:47:47;;;;;;;9.60;5.13;;;18.60;79.20;;;;;;5027057;28;20444;-79
2023/08/27 04:50:16;;;;;;;10.20;4.60;;;18.60;79.20;;;;;;5055659;28;20456;-80
2023/08/27 04:52:44;;;;;;;11.20;4.87;;;18.60;79.20;;;;;;5025792;28;20470;-80
2023/08/27 04:55:13;;;;;;;8.10;4.73;;;18.60;79.30;;;;;;5030657;28;20554;-80
2023/08/27 04:57:40;;;;;;;10.17;4.37;;;18.60;79.20;;;;;;5023338;28;20465;-79
2023/08/27 05:00:13;;;;;;;7.70;4.40;;;18.60;79.20;;;;;;5025559;28;22449;-79
2023/08/27 05:02:41;;;;;;;7.30;5.07;;;18.60;79.20;;;;;;5026544;28;20467;-79
2023/08/27 05:05:10;;;;;;;8.43;4.30;;;18.60;79.30;;;;;;5027388;28;20462;-81
2023/08/27 05:07:38;;;;;;;8.90;4.70;;;18.70;79.40;;;;;;5025738;28;20456;-79
2023/08/27 05:10:08;;;;;;;9.07;4.43;;;18.70;79.30;;;;;;5023871;28;20463;-79
2023/08/27 05:12:36;;;;;;;7.17;4.13;;;18.70;79.40;;;;;;5020362;28;21016;-80
2023/08/27 05:15:08;;;;;;;9.70;4.27;;;18.70;79.40;;;;;;5029175;28;20503;-79
2023/08/27 05:17:36;;;;;;;7.20;4.37;;;18.70;79.40;;;;;;5038733;28;20453;-81
2023/08/27 05:20:07;;;;;;;10.63;5.37;;;18.80;79.40;;;;;;5024939;28;20824;-79
2023/08/27 05:22:36;;;;;;;8.80;4.70;;;18.80;79.40;;;;;;5022569;28;20905;-80
2023/08/27 05:25:04;;;;;;;9.57;6.00;;;18.70;79.30;;;;;;5030897;28;20460;-78
2023/08/27 05:27:33;;;;;;;6.83;4.60;;;18.70;79.40;;;;;;5019480;28;20459;-81
2023/08/27 05:30:01;;;;;;;12.03;6.30;;;18.60;79.50;;;;;;5027210;28;20462;-79
2023/08/27 05:32:29;;;;;;;10.00;5.27;;;18.60;79.60;;;;;;5027294;28;20553;-79
2023/08/27 05:34:57;;;;;;;8.23;5.50;;;18.60;79.50;;;;;;5023561;28;20453;-80
2023/08/27 05:37:25;;;;;;;8.33;5.07;;;18.60;79.50;;;;;;5026404;28;20550;-79
2023/08/27 05:39:54;;;;;;;9.83;4.90;;;18.50;79.70;;;;;;5020481;28;20955;-80
2023/08/27 05:42:23;;;;;;;8.70;4.67;;;18.50;79.90;;;;;;5023854;28;20491;-79
2023/08/27 05:44:51;;;;;;;12.00;5.07;;;18.50;80.00;;;;;;5029098;28;20460;-79
2023/08/27 05:47:20;;;;;;;7.77;4.90;;;18.60;80.10;;;;;;5028502;28;20460;-79
2023/08/27 05:49:48;;;;;;;7.83;4.77;;;18.60;80.10;;;;;;5031063;28;20466;-80
2023/08/27 05:52:16;;;;;;;8.80;5.20;;;18.70;80.20;;;;;;5031641;28;20457;-78
2023/08/27 05:54:44;;;;;;;7.63;4.90;;;18.70;80.20;;;;;;5027497;28;20490;-80
2023/08/27 05:57:13;;;;;;;14.17;5.57;;;18.80;80.20;;;;;;5027293;28;20965;-80
2023/08/27 05:59:41;;;;;;;8.33;4.97;;;18.80;80.20;;;;;;5023921;28;20463;-79
2023/08/27 06:02:13;;;;;;;7.33;5.03;;;18.80;80.20;;;;;;5021837;28;20487;-79
2023/08/27 06:04:42;;;;;;;9.07;5.00;;;18.90;80.20;;;;;;5056348;28;20460;-80
2023/08/27 06:07:11;;;;;;;12.03;6.00;;;18.90;80.20;;;;;;5026173;28;22004;-77
2023/08/27 06:09:39;;;;;;;11.50;5.13;;;18.90;80.10;;;;;;5029884;28;20909;-80
2023/08/27 06:12:07;;;;;;;7.97;4.73;;;18.80;80.10;;;;;;5032089;28;20455;-77
2023/08/27 06:14:37;;;;;;;6.50;3.93;;;18.80;80.20;;;;;;5055301;28;20456;-76
2023/08/27 06:17:05;;;;;;;7.10;4.60;;;18.80;80.20;;;;;;5026418;28;20475;-80
2023/08/27 06:19:33;;;;;;;7.20;5.00;;;18.80;80.20;;;;;;5024740;28;20535;-79
2023/08/27 06:22:15;;;;;;;9.90;5.67;;;18.70;80.00;;;;;;5020178;28;20475;-80
2023/08/27 06:24:45;;;;;;;10.43;5.43;;;18.60;80.00;;;;;;5028468;28;20853;-80
2023/08/27 06:27:14;;;;;;;9.47;5.40;;;18.50;80.10;;;;;;5021394;28;21010;-78
2023/08/27 06:29:46;;;;;;;14.03;6.33;;;18.40;80.40;;;;;;5025651;28;20545;-79
2023/08/27 06:32:20;;;;;;;11.27;5.47;;;18.40;80.70;;;;;;5028254;28;20504;-81
2023/08/27 06:34:48;;;;;;;10.67;5.87;;;18.40;81.00;;;;;;5029533;28;20509;-81
2023/08/27 06:37:19;;;;;;;8.13;5.33;;;18.40;81.10;;;;;;5030180;28;20860;-81
2023/08/27 06:39:49;;;;;;;9.30;5.60;;;18.40;81.10;;;;;;5024467;28;20521;-80
2023/08/27 06:42:17;;;;;;;10.03;6.00;;;18.40;81.20;;;;;;5026673;28;20605;-78
2023/08/27 06:44:49;;;;;;;9.73;5.60;;;18.50;81.30;;;;;;5032662;28;20464;-80
2023/08/27 06:47:18;;;;;;;11.00;5.60;;;18.50;81.30;;;;;;5022952;28;20455;-81
2023/08/27 06:49:48;;;;;;;9.23;5.17;;;18.50;81.40;;;;;;5031514;28;20460;-78
2023/08/27 06:52:17;;;;;;;9.33;5.73;;;18.50;81.60;;;;;;5025971;28;20529;-80
2023/08/27 06:54:46;;;;;;;9.17;4.90;;;18.50;81.70;;;;;;5029295;28;20462;-80
2023/08/27 06:57:14;;;;;;;9.57;6.20;;;18.50;81.80;;;;;;5027907;28;20489;-78
2023/08/27 06:59:43;;;;;;;9.43;5.43;;;18.50;82.00;;;;;;5039373;28;20446;-80
2023/08/27 07:02:13;;;;;;;9.87;5.80;;;18.50;82.30;;;;;;5021739;28;20571;-78
2023/08/27 07:04:42;;;;;;;7.77;5.87;;;18.50;82.50;;;;;;5050874;28;20460;-79
2023/08/27 07:07:12;;;;;;;9.33;6.57;;;18.60;82.50;;;;;;5020430;28;20465;-79
2023/08/27 07:09:40;;;;;;;8.70;6.00;;;18.60;82.60;;;;;;5017599;28;20452;-80
2023/08/27 07:12:08;;;;;;;9.90;6.80;;;18.70;82.60;;;;;;5051026;28;20597;-79
2023/08/27 07:14:36;;;;;;;8.70;5.83;;;18.80;82.80;;;;;;5023257;28;20563;-79
2023/08/27 07:17:04;;;;;;;11.33;6.73;;;18.90;82.70;;;;;;5027686;28;20459;-79
2023/08/27 07:19:34;;;;;;;11.60;7.10;;;18.90;82.60;;;;;;5015503;28;20492;-80
2023/08/27 07:22:02;;;;;;;8.07;5.57;;;19.00;82.60;;;;;;5021156;28;20472;-78
2023/08/27 07:24:30;;;;;;;9.10;5.37;;;19.10;82.60;;;;;;5027880;28;20461;-81
2023/08/27 07:26:58;;;;;;;11.17;6.40;;;19.10;82.70;;;;;;5027522;28;20516;-81
2023/08/27 07:29:28;;;;;;;7.20;4.57;;;19.20;82.70;;;;;;5028657;28;20551;-80
2023/08/27 07:31:56;;;;;;;9.17;6.10;;;19.30;82.70;;;;;;5025796;28;20485;-79
2023/08/27 07:34:24;;;;;;;8.80;6.30;;;19.30;82.60;;;;;;5029788;28;20483;-79
2023/08/27 07:36:54;;;;;;;10.83;6.80;;;19.40;82.50;;;;;;5032474;28;20807;-77
2023/08/27 07:39:30;;;;;;;9.67;6.37;;;19.40;82.50;;;;;;5040571;28;20820;-77
2023/08/27 07:41:58;;;;;;;10.10;6.47;;;19.40;82.50;;;;;;5020456;28;20521;-81
2023/08/27 07:44:26;;;;;;;9.93;6.93;;;19.40;82.50;;;;;;5016662;28;20464;-78
2023/08/27 07:46:54;;;;;;;9.30;5.90;;;19.40;82.60;;;;;;5020089;28;20466;-80
2023/08/27 07:49:23;;;;;;;9.87;6.00;;;19.50;82.60;;;;;;5020463;28;20512;-81
2023/08/27 07:51:53;;;;;;;11.27;6.43;;;19.50;82.70;;;;;;5020554;28;20464;-80
2023/08/27 07:54:21;;;;;;;13.53;7.20;;;19.60;82.60;;;;;;5037416;28;20907;-79
2023/08/27 07:56:49;;;;;;;11.43;7.43;;;19.60;82.60;;;;;;5030382;28;20517;-79
2023/08/27 07:59:18;;;;;;;12.90;7.00;;;19.60;82.50;;;;;;5028921;28;20471;-80
2023/08/27 08:01:47;;;;;;;10.47;6.83;;;19.60;82.60;;;;;;5019723;28;20492;-78
2023/08/27 08:04:16;;;;;;;11.20;6.50;;;19.60;82.60;;;;;;5029711;28;20527;-78
2023/08/27 08:06:44;;;;;;;10.30;7.00;;;19.70;82.60;;;;;;5027275;28;20457;-80
2023/08/27 08:09:14;;;;;;;13.47;6.70;;;19.70;82.60;;;;;;5029062;28;20500;-79
2023/08/27 08:11:42;;;;;;;15.87;7.87;;;19.70;82.60;;;;;;5028025;28;20452;-79
2023/08/27 08:14:10;;;;;;;11.20;7.20;;;19.80;82.60;;;;;;5032512;28;20891;-79
2023/08/27 08:16:38;;;;;;;8.77;6.47;;;19.80;82.60;;;;;;5024970;28;20459;-81
2023/08/27 08:19:06;;;;;;;10.27;7.63;;;19.80;82.60;;;;;;5021701;28;20456;-81
2023/08/27 08:21:34;;;;;;;14.30;8.20;;;19.80;82.50;;;;;;5017889;28;20988;-79
2023/08/27 08:24:02;;;;;;;15.10;7.23;;;19.70;82.50;;;;;;5018543;28;20464;-79
2023/08/27 08:26:31;;;;;;;9.83;7.33;;;19.70;82.60;;;;;;5022844;28;20448;-79
2023/08/27 08:28:59;;;;;;;9.07;6.33;;;19.70;82.70;;;;;;5023835;28;20908;-79
2023/08/27 08:31:27;;;;;;;10.23;6.53;;;19.80;82.70;;;;;;5020316;28;20459;-80
2023/08/27 08:33:55;;;;;;;10.37;7.07;;;19.80;82.70;;;;;;5024515;28;20448;-80
2023/08/27 08:36:23;;;;;;;13.20;7.87;;;19.80;82.80;;;;;;5017038;28;20454;-78
2023/08/27 08:38:51;;;;;;;11.93;6.70;;;19.90;82.70;;;;;;5022986;28;20517;-80
2023/08/27 08:41:23;;;;;;;13.27;6.63;;;19.90;82.70;;;;;;5017678;28;20481;-80
2023/08/27 08:43:59;;;;;;;11.80;7.03;;;19.90;82.70;;;;;;5027605;28;20493;-78
2023/08/27 08:46:32;;;;;;;11.40;6.50;;;19.90;82.70;;;;;;5027983;28;20451;-79
2023/08/27 08:49:02;;;;;;;11.60;7.33;;;19.90;82.70;;;;;;5022358;28;20466;-79
2023/08/27 08:51:33;;;;;;;13.67;7.10;;;19.90;82.80;;;;;;5021892;28;20464;-79
2023/08/27 08:54:05;;;;;;;11.97;6.43;;;20.00;82.80;;;;;;5023620;28;20480;-78
2023/08/27 08:56:38;;;;;;;10.00;6.03;;;20.00;82.90;;;;;;5022917;28;20972;-80
2023/08/27 08:59:08;;;;;;;9.33;5.60;;;20.10;82.80;;;;;;5027933;28;20554;-77
2023/08/27 09:01:36;;;;;;;10.47;5.30;;;20.10;82.70;;;;;;5019948;28;21024;-80
2023/08/27 09:04:07;;;;;;;8.13;5.10;;;20.20;82.70;;;;;;5027390;28;20502;-78
2023/08/27 09:06:38;;;;;;;7.77;5.00;;;20.20;82.70;;;;;;5034258;28;20531;-82
2023/08/27 09:09:06;;;;;;;10.93;4.50;;;20.30;82.70;;;;;;5026805;28;20461;-80
2023/08/27 09:11:37;;;;;;;10.33;4.20;;;20.30;82.60;;;;;;5027130;28;20456;-81
2023/08/27 09:14:05;;;;;;;8.97;4.70;;;20.30;82.60;;;;;;5018675;28;20482;-79
2023/08/27 09:16:34;;;;;;;7.93;4.40;;;20.40;82.60;;;;;;5023428;28;20561;-81
2023/08/27 09:19:03;;;;;;;7.17;4.33;;;20.50;82.40;;;;;;5023943;28;20451;-78
2023/08/27 09:21:31;;;;;;;7.77;4.20;;;20.50;82.30;;;;;;5031684;28;20475;-83
2023/08/27 09:23:59;;;;;;;6.17;3.67;;;20.50;82.30;;;;;;5026343;28;20487;-81
2023/08/27 09:26:27;;;;;;;7.07;3.23;;;20.60;82.30;;;;;;5028245;28;20465;-79
2023/08/27 09:28:56;;;;;;;7.23;3.80;;;20.60;82.30;;;;;;5029147;28;20537;-80
2023/08/27 09:31:39;;;;;;;8.80;3.30;;;20.70;82.20;;;;;;5043490;28;20467;-80
2023/08/27 09:34:09;;;;;;;6.43;3.63;;;20.80;82.00;;;;;;5029956;28;20982;-79
2023/08/27 09:36:38;;;;;;;7.60;3.17;;;20.80;82.00;;;;;;5025272;28;20468;-78
2023/08/27 09:39:10;;;;;;;7.33;3.20;;;20.80;81.90;;;;;;5030395;28;20459;-80
2023/08/27 09:41:40;;;;;;;7.03;3.10;;;20.90;81.80;;;;;;5031576;28;20479;-80
2023/08/27 09:44:09;;;;;;;6.60;2.80;;;20.90;81.70;;;;;;5037041;28;20503;-81
2023/08/27 09:46:40;;;;;;;5.80;2.60;;;20.90;81.60;;;;;;5026289;28;20455;-79
2023/08/27 09:49:09;;;;;;;5.37;2.50;;;21.00;81.50;;;;;;5027826;28;20480;-79
2023/08/27 09:51:38;;;;;;;5.10;2.33;;;21.00;81.20;;;;;;5026655;28;20460;-80
2023/08/27 09:54:14;;;;;;;6.10;2.80;;;21.00;81.10;;;;;;5032829;28;20455;-80
2023/08/27 09:56:46;;;;;;;5.50;2.83;;;21.00;81.00;;;;;;5041199;28;20465;-80
2023/08/27 09:59:16;;;;;;;5.03;2.67;;;21.00;80.90;;;;;;5026080;28;20459;-79
2023/08/27 10:01:48;;;;;;;5.90;3.00;;;21.00;80.90;;;;;;5014929;28;20476;-80
2023/08/27 10:04:18;;;;;;;5.30;2.47;;;21.10;80.80;;;;;;5008061;28;20575;-80
2023/08/27 10:06:46;;;;;;;6.10;3.07;;;21.10;80.60;;;;;;5005196;28;20940;-78
2023/08/27 10:09:15;;;;;;;5.30;2.70;;;21.20;80.50;;;;;;5011031;28;20464;-79
2023/08/27 10:11:45;;;;;;;7.87;2.87;;;21.30;80.60;;;;;;5009504;28;20452;-80
2023/08/27 10:14:16;;;;;;;5.60;2.80;;;21.30;80.50;;;;;;5009175;28;20488;-80
2023/08/27 10:16:44;;;;;;;5.27;2.47;;;21.30;80.40;;;;;;5006860;28;20494;-79
2023/08/27 10:19:13;;;;;;;10.30;2.73;;;21.40;80.30;;;;;;5008428;28;20451;-81
2023/08/27 10:21:42;;;;;;;5.57;2.60;;;21.40;80.20;;;;;;5005736;28;20461;-79
2023/08/27 10:24:11;;;;;;;5.67;2.57;;;21.50;80.20;;;;;;5013462;28;20484;-78
2023/08/27 10:26:42;;;;;;;5.20;2.60;;;21.60;80.10;;;;;;5012926;28;20465;-79
2023/08/27 10:29:11;;;;;;;6.33;2.70;;;21.60;80.00;;;;;;5011520;28;20832;-80
2023/08/27 10:31:40;;;;;;;6.07;3.03;;;21.70;79.70;;;;;;5013650;28;20545;-81
2023/08/27 10:34:09;;;;;;;7.27;2.90;;;21.70;79.60;;;;;;5024976;28;20860;-80
2023/08/27 10:36:41;;;;;;;8.07;3.00;;;21.80;79.40;;;;;;5029361;28;20454;-80
2023/08/27 10:39:09;;;;;;;6.70;3.50;;;21.80;79.40;;;;;;5036781;28;20575;-80
2023/08/27 10:41:37;;;;;;;6.10;2.60;;;21.80;79.30;;;;;;5024143;28;21045;-79
2023/08/27 10:44:06;;;;;;;8.13;3.37;;;21.90;79.30;;;;;;5019709;28;20486;-78
2023/08/27 10:46:34;;;;;;;6.93;4.10;;;21.90;78.90;;;;;;5024054;28;20464;-79
2023/08/27 10:49:16;;;;;;;7.10;3.60;;;21.80;78.90;;;;;;5026216;28;20456;-80
2023/08/27 10:51:46;;;;;;;6.27;3.13;;;21.90;79.00;;;;;;5026560;28;21202;-77
2023/08/27 10:54:25;;;;;;;7.00;3.20;;;21.90;79.00;;;;;;5025174;28;20474;-81
2023/08/27 10:56:55;;;;;;;6.60;3.40;;;21.90;78.90;;;;;;5027394;28;20452;-79
2023/08/27 10:59:30;;;;;;;6.30;3.43;;;22.00;78.80;;;;;;5022575;28;20558;-77
2023/08/27 11:02:07;;;;;;;6.93;3.50;;;22.00;78.60;;;;;;5022487;28;20500;-81
2023/08/27 11:04:37;;;;;;;5.90;3.50;;;22.00;78.60;;;;;;5026445;28;20490;-80
2023/08/27 11:07:11;;;;;;;5.97;3.23;;;22.10;78.60;;;;;;5020658;28;20464;-80
2023/08/27 11:09:47;;;;;;;8.77;3.43;;;22.20;78.30;;;;;;5024998;28;20458;-80
2023/08/27 11:12:25;;;;;;;7.03;3.10;;;22.10;78.10;;;;;;5039981;28;20554;-81
2023/08/27 11:14:54;;;;;;;6.30;3.30;;;22.10;78.10;;;;;;5025859;28;20792;-80
2023/08/27 11:17:24;;;;;;;7.00;3.40;;;22.20;78.00;;;;;;5021701;28;21008;-81
2023/08/27 11:19:53;;;;;;;7.60;3.30;;;22.20;77.80;;;;;;5030603;28;20538;-81
2023/08/27 11:22:24;;;;;;;9.03;3.23;;;22.20;77.90;;;;;;5031054;28;20559;-79
2023/08/27 11:24:53;;;;;;;6.40;3.00;;;22.20;77.90;;;;;;5023728;28;20467;-80
2023/08/27 11:27:22;;;;;;;6.60;3.30;;;22.30;77.70;;;;;;5027008;28;20482;-79
2023/08/27 11:29:51;;;;;;;8.60;3.87;;;22.30;77.50;;;;;;5026711;28;20467;-78
2023/08/27 11:32:21;;;;;;;6.37;3.13;;;22.40;77.50;;;;;;5017270;28;20583;-82
2023/08/27 11:34:51;;;;;;;7.03;2.77;;;22.50;77.30;;;;;;5018430;28;20468;-82
2023/08/27 11:37:20;;;;;;;5.10;2.40;;;22.50;77.00;;;;;;5031628;28;20548;-79
2023/08/27 11:39:51;;;;;;;6.00;2.70;;;22.50;76.70;;;;;;5028453;28;20451;-80
2023/08/27 11:42:19;;;;;;;5.60;2.70;;;22.60;76.40;;;;;;5027209;28;20470;-81
2023/08/27 11:44:48;;;;;;;7.40;2.50;;;22.60;76.30;;;;;;5026008;28;21358;-79
2023/08/27 11:47:16;;;;;;;5.60;2.40;;;22.60;76.00;;;;;;5026442;28;20559;-80
2023/08/27 11:49:45;;;;;;;10.83;3.10;;;22.60;76.00;;;;;;5029596;28;20547;-82
2023/08/27 11:52:20;;;;;;;6.20;2.40;;;22.60;75.70;;;;;;5029606;28;20467;-79
2023/08/27 11:54:49;;;;;;;5.50;2.63;;;22.60;75.50;;;;;;5021583;28;21006;-79
2023/08/27 11:57:20;;;;;;;5.97;2.40;;;22.60;75.50;;;;;;5025318;28;20463;-79
2023/08/27 11:59:49;;;;;;;5.17;2.70;;;22.70;75.30;;;;;;5022696;28;20540;-77
2023/08/27 12:02:17;;;;;;;8.10;3.37;;;22.70;75.30;;;;;;5024925;28;20885;-82
2023/08/27 12:04:45;;;;;;;5.27;2.63;;;22.70;75.10;;;;;;5030571;28;20476;-79
2023/08/27 12:07:26;;;;;;;6.03;3.07;;;22.80;74.90;;;;;;5030052;28;20455;-81
2023/08/27 12:09:54;;;;;;;8.47;2.80;;;22.80;74.60;;;;;;5022276;28;20451;-80
2023/08/27 12:12:26;;;;;;;7.90;3.20;;;22.80;74.60;;;;;;5023985;28;20478;-81
2023/08/27 12:14:54;;;;;;;7.10;2.93;;;22.90;74.50;;;;;;5031318;28;20520;-81
2023/08/27 12:17:22;;;;;;;5.67;2.50;;;22.90;74.40;;;;;;5025541;28;20443;-78
2023/08/27 12:19:51;;;;;;;5.73;2.33;;;23.00;74.00;;;;;;5030899;28;20459;-79
2023/08/27 12:22:19;;;;;;;6.93;2.67;;;22.90;73.00;;;;;;5023683;28;20459;-80
2023/08/27 12:24:47;;;;;;;6.63;2.80;;;22.90;72.70;;;;;;5026632;28;20483;-79
2023/08/27 12:27:17;;;;;;;7.00;2.50;;;22.90;72.70;;;;;;5025202;28;20452;-79
2023/08/27 12:29:47;;;;;;;6.13;2.90;;;23.00;72.60;;;;;;5028158;28;20464;-79
2023/08/27 12:32:17;;;;;;;6.30;3.10;;;23.00;72.30;;;;;;5023040;28;20468;-79
2023/08/27 12:34:46;;;;;;;5.60;3.00;;;23.00;72.00;;;;;;5027903;28;20532;-81
2023/08/27 12:37:17;;;;;;;5.20;2.50;;;23.00;71.60;;;;;;5028948;28;20455;-78
2023/08/27 12:39:46;;;;;;;7.53;3.10;;;23.00;71.30;;;;;;5025084;28;20461;-79
2023/08/27 12:42:15;;;;;;;7.63;3.10;;;23.00;71.10;;;;;;5027240;28;20995;-79
2023/08/27 12:44:45;;;;;;;6.00;3.00;;;23.00;70.70;;;;;;5022499;28;20514;-80
2023/08/27 12:47:18;;;;;;;5.43;2.97;;;22.90;70.70;;;;;;5028126;28;20479;-79
2023/08/27 12:49:46;;;;;;;6.37;3.70;;;23.00;70.80;;;;;;5024401;28;20459;-80
2023/08/27 12:52:14;;;;;;;8.20;3.80;;;23.00;71.00;;;;;;5025943;28;20487;-78
2023/08/27 12:54:42;;;;;;;9.43;4.10;;;23.10;70.90;;;;;;5024033;28;20954;-79
2023/08/27 12:57:11;;;;;;;7.70;4.00;;;23.20;70.80;;;;;;5025569;28;20534;-80